Time;durP1;ratioP1;P1;durP2;ratioP2;P2;SDS_P1;SDS_P2;PMS_P1;PMS_P2;Temp;Humidity;BMP_temperature;BMP_pressure;BME280_temperature;BME280_humidity;BME280_pressure;Samples;Min_cycle;Max_cycle;Signal;HPM_P1;HPM_P2
2023/09/27 00:00:16;;;;;;;8.93;5.63;;;;;;;14.30;100.00;101410.75;6027508;28;20112;-63
2023/09/27 00:03:11;;;;;;;10.73;4.57;;;;;;;13.97;100.00;101427.41;6027407;28;20138;-64
2023/09/27 00:06:07;;;;;;;10.93;4.33;;;;;;;13.94;100.00;101411.72;6027067;28;20387;-64
2023/09/27 00:09:03;;;;;;;8.32;5.13;;;;;;;13.97;100.00;101416.75;6026531;28;20038;-64
2023/09/27 00:12:03;;;;;;;8.38;4.55;;;;;;;14.14;100.00;101423.09;6027007;28;20165;-64
2023/09/27 00:15:01;;;;;;;11.00;4.90;;;;;;;14.16;100.00;101399.75;6027254;28;20385;-64
2023/09/27 00:17:57;;;;;;;10.38;4.43;;;;;;;14.20;100.00;101407.34;6026215;28;20433;-64
2023/09/27 00:20:52;;;;;;;9.83;4.97;;;;;;;14.10;100.00;101406.56;6026879;28;20042;-63
2023/09/27 00:23:47;;;;;;;10.53;5.00;;;;;;;13.95;100.00;101402.72;6027261;28;20027;-64
2023/09/27 00:26:43;;;;;;;10.95;4.88;;;;;;;13.97;100.00;101400.75;6026007;28;20046;-64
2023/09/27 00:29:38;;;;;;;10.73;5.30;;;;;;;13.84;100.00;101376.28;6018102;28;20038;-64
2023/09/27 00:32:34;;;;;;;8.03;4.77;;;;;;;13.92;100.00;101400.38;6026083;28;20107;-64
2023/09/27 00:35:29;;;;;;;8.68;5.00;;;;;;;13.99;100.00;101413.94;6026692;28;20276;-64
2023/09/27 00:38:24;;;;;;;9.33;4.77;;;;;;;13.94;100.00;101397.56;6026335;28;20062;-64
2023/09/27 00:41:20;;;;;;;8.77;4.90;;;;;;;14.11;100.00;101400.22;6026754;28;20055;-64
2023/09/27 00:44:15;;;;;;;9.68;4.65;;;;;;;14.07;100.00;101390.88;6026685;28;20030;-64
2023/09/27 00:47:10;;;;;;;8.23;4.83;;;;;;;14.00;100.00;101392.44;6026013;28;20402;-64
2023/09/27 00:50:07;;;;;;;9.30;4.73;;;;;;;14.03;100.00;101394.81;6025044;28;20030;-64
2023/09/27 00:53:03;;;;;;;10.32;4.57;;;;;;;14.12;100.00;101393.91;6025282;28;20060;-64
2023/09/27 00:55:58;;;;;;;9.25;4.28;;;;;;;14.10;100.00;101397.72;6027138;28;20691;-64
2023/09/27 00:58:54;;;;;;;8.27;4.25;;;;;;;13.97;100.00;101398.06;6045518;28;20105;-64
2023/09/27 01:01:49;;;;;;;8.57;4.18;;;;;;;13.58;100.00;101405.50;6026301;28;20034;-63
2023/09/27 01:04:45;;;;;;;9.00;4.13;;;;;;;13.71;100.00;101413.13;6024837;28;20037;-64
2023/09/27 01:07:40;;;;;;;8.05;3.90;;;;;;;13.76;100.00;101408.19;6025527;28;20030;-63
2023/09/27 01:10:35;;;;;;;10.13;4.27;;;;;;;13.52;100.00;101407.91;6026110;28;20034;-63
2023/09/27 01:13:31;;;;;;;12.20;4.57;;;;;;;13.46;100.00;101384.50;6020973;28;20304;-63
2023/09/27 01:16:27;;;;;;;7.03;4.18;;;;;;;13.49;100.00;101373.56;6025272;28;20042;-64
2023/09/27 01:19:22;;;;;;;10.10;4.50;;;;;;;13.62;100.00;101368.69;6025551;28;20469;-64
2023/09/27 01:22:17;;;;;;;8.15;4.43;;;;;;;13.71;100.00;101365.16;6025977;28;20103;-64
2023/09/27 01:25:15;;;;;;;10.90;4.30;;;;;;;13.48;100.00;101371.91;6025201;28;20136;-63
2023/09/27 01:28:11;;;;;;;7.70;3.92;;;;;;;13.39;100.00;101373.63;6023814;28;20110;-64
2023/09/27 01:31:07;;;;;;;6.35;3.80;;;;;;;13.61;100.00;101378.56;6024584;28;20405;-63
2023/09/27 01:34:02;;;;;;;9.73;4.10;;;;;;;13.55;100.00;101372.97;6025593;28;20034;-64
2023/09/27 01:36:58;;;;;;;6.40;3.63;;;;;;;13.50;100.00;101386.75;6025080;28;20027;-64
2023/09/27 01:39:54;;;;;;;6.13;3.40;;;;;;;13.54;100.00;101385.44;6024946;28;20761;-63
2023/09/27 01:42:50;;;;;;;11.07;3.83;;;;;;;13.58;100.00;101364.69;6025484;28;20285;-64
2023/09/27 01:45:45;;;;;;;7.33;3.90;;;;;;;13.57;100.00;101382.50;6025305;28;20109;-64
2023/09/27 01:48:40;;;;;;;6.30;3.73;;;;;;;13.37;100.00;101364.09;6026041;28;20113;-64
2023/09/27 01:51:36;;;;;;;8.27;3.97;;;;;;;13.46;100.00;101380.03;6024501;28;20058;-64
2023/09/27 01:54:31;;;;;;;6.53;3.60;;;;;;;13.48;100.00;101387.88;6025383;28;20038;-63
2023/09/27 01:57:26;;;;;;;6.93;3.93;;;;;;;13.33;100.00;101384.84;6025488;28;20555;-64
2023/09/27 02:00:22;;;;;;;6.53;3.73;;;;;;;13.18;100.00;101358.88;6024986;28;20058;-63
2023/09/27 02:03:17;;;;;;;6.07;3.70;;;;;;;13.27;100.00;101382.78;6025536;28;20474;-64
2023/09/27 02:06:13;;;;;;;6.80;3.83;;;;;;;13.34;100.00;101385.72;6024388;28;20521;-64
2023/09/27 02:09:08;;;;;;;7.63;3.87;;;;;;;13.32;100.00;101390.31;6017741;28;20038;-64
2023/09/27 02:12:04;;;;;;;8.68;4.25;;;;;;;13.24;100.00;101395.53;6025257;28;20034;-64
2023/09/27 02:14:59;;;;;;;8.32;4.60;;;;;;;13.11;100.00;101382.56;6025003;28;20050;-64
2023/09/27 02:17:55;;;;;;;8.40;4.75;;;;;;;13.22;100.00;101397.50;6025031;28;20039;-64
2023/09/27 02:20:50;;;;;;;7.90;4.37;;;;;;;13.27;100.00;101395.25;6024891;28;20038;-64
2023/09/27 02:23:46;;;;;;;8.23;4.50;;;;;;;13.34;100.00;101407.88;6024710;28;20100;-63
2023/09/27 02:26:41;;;;;;;7.63;4.13;;;;;;;13.10;100.00;101397.69;6024778;28;20030;-64
2023/09/27 02:29:43;;;;;;;6.57;3.70;;;;;;;13.13;100.00;101404.56;6024892;28;20047;-63
2023/09/27 02:32:40;;;;;;;8.20;3.72;;;;;;;13.11;100.00;101398.53;6024868;28;20304;-63
2023/09/27 02:35:36;;;;;;;5.93;3.63;;;;;;;12.99;100.00;101391.69;6023339;28;20496;-64
2023/09/27 02:38:34;;;;;;;7.32;3.80;;;;;;;12.85;100.00;101406.31;6023642;28;20101;-64
2023/09/27 02:41:29;;;;;;;7.10;4.00;;;;;;;12.95;100.00;101401.78;6024282;28;20042;-64
2023/09/27 02:44:25;;;;;;;7.30;3.92;;;;;;;13.03;100.00;101414.38;6024447;28;20041;-63
2023/09/27 02:47:20;;;;;;;9.52;4.47;;;;;;;13.01;100.00;101419.00;6024508;28;20383;-66
2023/09/27 02:50:16;;;;;;;8.63;3.87;;;;;;;13.00;100.00;101398.69;6022974;28;20049;-64
2023/09/27 02:53:11;;;;;;;9.23;3.80;;;;;;;13.06;100.00;101409.59;6025096;28;20474;-64
2023/09/27 02:56:06;;;;;;;7.10;3.77;;;;;;;12.85;100.00;101400.13;6030322;28;20269;-64
2023/09/27 02:59:02;;;;;;;8.13;4.40;;;;;;;12.84;100.00;101409.94;6024846;28;20061;-64
2023/09/27 03:01:57;;;;;;;9.70;4.60;;;;;;;12.71;100.00;101388.13;6023923;28;20044;-64
2023/09/27 03:04:52;;;;;;;10.43;5.90;;;;;;;12.85;100.00;101400.97;6028617;28;20061;-64
2023/09/27 03:07:48;;;;;;;9.23;4.90;;;;;;;12.80;100.00;101381.09;6028649;28;20033;-64
2023/09/27 03:10:43;;;;;;;10.40;4.95;;;;;;;12.87;100.00;101393.69;6028530;28;20030;-64
2023/09/27 03:13:40;;;;;;;9.80;5.17;;;;;;;12.81;100.00;101388.94;6028743;28;20049;-64
2023/09/27 03:16:35;;;;;;;8.82;5.05;;;;;;;12.72;100.00;101380.97;6020217;28;20389;-64
2023/09/27 03:19:30;;;;;;;9.93;4.38;;;;;;;12.80;100.00;101408.53;6020177;28;20046;-63
2023/09/27 03:22:26;;;;;;;8.40;4.70;;;;;;;12.61;100.00;101427.19;6027972;28;20466;-64
2023/09/27 03:25:21;;;;;;;8.87;4.60;;;;;;;12.78;100.00;101425.63;6027878;28;20030;-63
2023/09/27 03:28:16;;;;;;;12.43;4.50;;;;;;;12.69;100.00;101418.53;6027762;28;20039;-64
2023/09/27 03:31:11;;;;;;;11.13;5.03;;;;;;;12.55;100.00;101409.16;6028295;28;20098;-64
2023/09/27 03:34:07;;;;;;;10.83;4.87;;;;;;;12.60;100.00;101411.38;6028264;28;20743;-64
2023/09/27 03:37:02;;;;;;;10.93;5.27;;;;;;;12.64;100.00;101407.47;6024246;28;20034;-64
2023/09/27 03:39:57;;;;;;;9.13;4.87;;;;;;;12.72;100.00;101423.56;6025574;28;20034;-64
2023/09/27 03:42:53;;;;;;;10.50;5.87;;;;;;;12.67;100.00;101423.97;6028193;28;20385;-63
2023/09/27 03:45:49;;;;;;;11.07;5.20;;;;;;;12.66;100.00;101438.28;6027772;28;20273;-64
2023/09/27 03:48:44;;;;;;;10.25;5.60;;;;;;;12.52;100.00;101452.84;6026985;28;20389;-63
2023/09/27 03:51:39;;;;;;;10.65;4.55;;;;;;;12.42;100.00;101456.47;6027839;28;20042;-64
2023/09/27 03:54:35;;;;;;;8.03;4.50;;;;;;;12.39;100.00;101446.13;6029811;28;20038;-63
2023/09/27 03:57:30;;;;;;;8.90;4.20;;;;;;;12.42;100.00;101467.94;6027872;28;20105;-64
2023/09/27 04:00:26;;;;;;;9.57;4.20;;;;;;;12.38;100.00;101460.41;6027340;28;20042;-64
2023/09/27 04:03:21;;;;;;;11.25;3.78;;;;;;;12.33;100.00;101444.00;6027607;28;20022;-64
2023/09/27 04:06:17;;;;;;;9.87;4.73;;;;;;;12.35;100.00;101444.72;6026535;28;20397;-64
2023/09/27 04:09:12;;;;;;;9.77;4.27;;;;;;;12.41;100.00;101457.47;6027209;28;20305;-63
2023/09/27 04:12:07;;;;;;;9.37;4.80;;;;;;;12.13;100.00;101456.44;6026846;28;20394;-64
2023/09/27 04:15:09;;;;;;;8.88;4.53;;;;;;;12.25;100.00;101462.47;6027260;28;20037;-63
2023/09/27 04:18:05;;;;;;;10.02;4.30;;;;;;;12.27;100.00;101452.53;6026370;28;20034;-63
2023/09/27 04:21:07;;;;;;;7.55;4.40;;;;;;;12.49;100.00;101460.25;6027128;28;20061;-64
2023/09/27 04:24:04;;;;;;;10.18;5.30;;;;;;;12.39;100.00;101432.81;6027072;28;20038;-63
2023/09/27 04:26:59;;;;;;;8.15;4.65;;;;;;;12.45;100.00;101450.88;6025397;28;20034;-64
2023/09/27 04:29:54;;;;;;;9.33;4.50;;;;;;;12.44;100.00;101443.88;6021452;28;20053;-64
2023/09/27 04:32:50;;;;;;;10.77;5.20;;;;;;;12.32;100.00;101426.38;6025881;28;20344;-64
2023/09/27 04:35:47;;;;;;;9.85;5.05;;;;;;;12.29;100.00;101442.59;6026938;28;20084;-64
2023/09/27 04:38:46;;;;;;;10.18;4.38;;;;;;;12.07;100.00;101450.81;6025919;28;20042;-64
2023/09/27 04:41:42;;;;;;;8.13;4.47;;;;;;;12.06;100.00;101467.78;6026701;28;20466;-64
2023/09/27 04:44:38;;;;;;;9.52;4.30;;;;;;;11.98;100.00;101456.97;6026711;28;20034;-64
2023/09/27 04:47:33;;;;;;;10.02;4.78;;;;;;;12.01;100.00;101464.69;6025555;28;20140;-63
2023/09/27 04:50:28;;;;;;;8.07;4.57;;;;;;;11.91;100.00;101467.31;6026252;28;20034;-64
2023/09/27 04:53:24;;;;;;;10.80;4.80;;;;;;;11.99;100.00;101479.91;6026224;28;20038;-64
2023/09/27 04:56:19;;;;;;;9.60;5.50;;;;;;;11.89;100.00;101459.47;6029347;28;20069;-63
2023/09/27 04:59:14;;;;;;;9.97;4.47;;;;;;;12.04;100.00;101483.84;6026399;28;20270;-64
2023/09/27 05:02:09;;;;;;;8.83;4.60;;;;;;;12.02;100.00;101482.31;6026327;28;20070;-64
2023/09/27 05:05:05;;;;;;;9.37;4.63;;;;;;;11.93;100.00;101463.53;6026121;28;20022;-64
2023/09/27 05:08:01;;;;;;;9.32;4.30;;;;;;;11.93;100.00;101465.34;6025221;28;20489;-64
2023/09/27 05:10:56;;;;;;;9.35;5.25;;;;;;;11.97;100.00;101471.25;6025747;28;20042;-66
2023/09/27 05:13:52;;;;;;;9.40;4.97;;;;;;;11.93;100.00;101476.81;6026145;28;20038;-64
2023/09/27 05:16:47;;;;;;;12.03;5.63;;;;;;;11.85;100.00;101463.38;6017804;28;20277;-64
2023/09/27 05:19:42;;;;;;;10.47;5.27;;;;;;;11.84;100.00;101452.91;6025946;28;20053;-64
2023/09/27 05:22:37;;;;;;;10.57;5.20;;;;;;;11.90;100.00;101447.84;6021687;28;20087;-64
2023/09/27 05:25:33;;;;;;;9.70;5.50;;;;;;;12.08;100.00;101468.47;6024017;28;20369;-64
2023/09/27 05:28:28;;;;;;;9.53;5.37;;;;;;;12.03;100.00;101465.38;6025189;28;20040;-64
2023/09/27 05:31:24;;;;;;;9.77;4.60;;;;;;;12.08;100.00;101474.63;6026894;28;20042;-64
2023/09/27 05:34:19;;;;;;;8.30;5.00;;;;;;;12.01;100.00;101470.00;6025695;28;20038;-64
2023/09/27 05:37:14;;;;;;;9.60;4.77;;;;;;;12.10;100.00;101461.19;6024469;28;20034;-64
2023/09/27 05:40:10;;;;;;;8.77;4.57;;;;;;;12.27;100.00;101489.78;6024296;28;20034;-64
2023/09/27 05:43:06;;;;;;;9.70;4.68;;;;;;;12.30;100.00;101494.81;6025208;28;20088;-64
2023/09/27 05:46:01;;;;;;;8.70;4.80;;;;;;;12.31;100.00;101502.66;6016405;28;20482;-63
2023/09/27 05:48:56;;;;;;;7.80;4.37;;;;;;;12.27;100.00;101495.09;6016648;28;20066;-64
2023/09/27 05:51:55;;;;;;;7.63;4.93;;;;;;;12.56;100.00;101509.25;6020526;28;20066;-64
2023/09/27 05:54:51;;;;;;;8.77;4.78;;;;;;;12.97;100.00;101511.63;6017118;28;20038;-63
2023/09/27 05:57:46;;;;;;;11.85;5.75;;;;;;;13.10;100.00;101496.22;6008737;28;20037;-64
2023/09/27 06:00:46;;;;;;;10.33;4.70;;;;;;;13.50;100.00;101487.16;6016689;28;20066;-64
2023/09/27 06:03:41;;;;;;;7.78;4.55;;;;;;;13.89;100.00;101493.16;6024089;28;20045;-64
2023/09/27 06:06:39;;;;;;;11.20;4.70;;;;;;;13.53;100.00;101493.00;6016060;28;20389;-64
2023/09/27 06:09:34;;;;;;;9.88;4.57;;;;;;;13.66;100.00;101503.38;6010825;28;20122;-64
2023/09/27 06:12:29;;;;;;;9.47;5.07;;;;;;;13.58;100.00;101505.94;6013880;28;20394;-64
2023/09/27 06:15:24;;;;;;;13.47;5.43;;;;;;;13.55;100.00;101495.56;6027766;28;20065;-64
2023/09/27 06:18:21;;;;;;;10.23;5.40;;;;;;;13.78;100.00;101502.19;6022001;28;20030;-64
2023/09/27 06:21:17;;;;;;;10.98;5.45;;;;;;;13.85;100.00;101492.63;6017788;28;20273;-64
2023/09/27 06:24:12;;;;;;;8.55;5.28;;;;;;;14.06;100.00;101487.88;6009485;28;20026;-64
2023/09/27 06:27:08;;;;;;;12.82;5.53;;;;;;;14.13;100.00;101509.47;6024192;28;20035;-65
2023/09/27 06:30:04;;;;;;;11.77;5.40;;;;;;;14.23;100.00;101497.75;6014737;28;20034;-64
2023/09/27 06:32:59;;;;;;;13.07;5.40;;;;;;;14.48;100.00;101514.03;6024380;28;20038;-64
2023/09/27 06:35:59;;;;;;;9.63;5.50;;;;;;;14.75;100.00;101500.59;6023256;28;20030;-64
2023/09/27 06:38:54;;;;;;;11.93;6.25;;;;;;;14.83;100.00;101511.34;6021879;28;20297;-65
2023/09/27 06:41:51;;;;;;;11.30;5.53;;;;;;;14.75;100.00;101489.94;6018429;28;20046;-64
2023/09/27 06:44:46;;;;;;;10.90;5.40;;;;;;;14.96;100.00;101494.94;6014512;28;20068;-65
2023/09/27 06:47:44;;;;;;;10.87;5.70;;;;;;;15.10;100.00;101502.38;6019656;28;20563;-64
2023/09/27 06:50:41;;;;;;;16.80;5.13;;;;;;;15.29;100.00;101492.34;6020340;28;20273;-64
2023/09/27 06:53:38;;;;;;;10.00;5.55;;;;;;;15.34;100.00;101474.00;6028513;28;20065;-64
2023/09/27 06:56:33;;;;;;;9.50;5.32;;;;;;;15.51;100.00;101485.66;6024470;28;20045;-63
2023/09/27 06:59:29;;;;;;;14.10;5.73;;;;;;;15.82;100.00;101477.91;6014725;28;20482;-64
2023/09/27 07:02:25;;;;;;;11.65;5.15;;;;;;;15.85;100.00;101477.59;6021202;28;20041;-64
2023/09/27 07:05:21;;;;;;;12.23;5.00;;;;;;;15.67;100.00;101463.50;6019054;28;20386;-64
2023/09/27 07:08:16;;;;;;;10.93;5.43;;;;;;;15.78;100.00;101455.19;6018927;28;20092;-64
2023/09/27 07:11:13;;;;;;;14.70;5.57;;;;;;;16.11;100.00;101464.16;6026155;28;20038;-64
2023/09/27 07:14:08;;;;;;;13.05;5.60;;;;;;;16.20;100.00;101460.50;6018417;28;20402;-64
2023/09/27 07:17:03;;;;;;;14.63;5.80;;;;;;;16.54;100.00;101478.16;6028095;28;20053;-64
2023/09/27 07:19:59;;;;;;;13.03;5.53;;;;;;;16.69;100.00;101456.06;6026515;28;20034;-64
2023/09/27 07:22:54;;;;;;;9.97;5.10;;;;;;;16.88;100.00;101453.88;6030223;28;20355;-64
2023/09/27 07:25:50;;;;;;;13.65;5.47;;;;;;;17.05;100.00;101474.28;6012603;28;20031;-64
2023/09/27 07:28:45;;;;;;;11.90;5.10;;;;;;;17.28;100.00;101458.34;6023777;28;20030;-65
2023/09/27 07:31:41;;;;;;;11.35;4.85;;;;;;;17.74;100.00;101476.34;6019015;28;20301;-64
2023/09/27 07:34:37;;;;;;;13.48;4.18;;;;;;;18.00;100.00;101472.53;6015269;28;20033;-64
2023/09/27 07:37:34;;;;;;;10.40;4.00;;;;;;;18.05;99.93;101454.03;6016928;28;20518;-64
2023/09/27 07:40:30;;;;;;;8.10;3.63;;;;;;;18.40;98.02;101461.53;6011271;28;20038;-65
2023/09/27 07:43:25;;;;;;;12.38;3.83;;;;;;;18.57;96.18;101451.53;6015576;28;20050;-64
2023/09/27 07:46:21;;;;;;;6.38;3.72;;;;;;;18.95;93.38;101446.00;6016372;28;20034;-64
2023/09/27 07:49:17;;;;;;;8.10;3.83;;;;;;;19.27;90.74;101454.78;6012876;28;20132;-64
2023/09/27 07:52:12;;;;;;;9.27;3.95;;;;;;;19.57;88.19;101445.69;6017688;28;20543;-64
2023/09/27 07:55:10;;;;;;;8.13;3.83;;;;;;;19.67;86.71;101459.72;6030958;28;20080;-64
2023/09/27 07:58:05;;;;;;;7.93;3.58;;;;;;;20.56;83.13;101458.50;6015999;28;20031;-64
2023/09/27 08:01:01;;;;;;;10.13;4.33;;;;;;;21.45;76.52;101471.25;6016851;28;20038;-64
2023/09/27 08:04:06;;;;;;;7.47;4.13;;;;;;;22.07;72.25;101454.94;6018889;28;20477;-64
2023/09/27 08:07:01;;;;;;;7.47;4.13;;;;;;;22.67;70.94;101466.75;6023934;28;20034;-64
2023/09/27 08:09:56;;;;;;;6.40;2.77;;;;;;;22.69;65.41;101476.34;6018976;28;20400;-64
2023/09/27 08:12:51;;;;;;;7.90;2.47;;;;;;;22.75;66.25;101480.06;6026688;28;20030;-64
2023/09/27 08:15:49;;;;;;;5.83;2.50;;;;;;;22.83;65.56;101483.41;6016552;28;20023;-64
2023/09/27 08:18:44;;;;;;;3.40;2.20;;;;;;;22.54;68.92;101490.03;6013861;28;20054;-64
2023/09/27 08:21:40;;;;;;;4.47;2.20;;;;;;;22.80;69.25;101499.25;6015223;28;20015;-64
2023/09/27 08:24:36;;;;;;;3.88;2.10;;;;;;;22.46;70.04;101490.22;6016317;28;20031;-64
2023/09/27 08:27:31;;;;;;;4.95;2.63;;;;;;;22.20;71.63;101484.75;6013334;28;20363;-64
2023/09/27 08:30:27;;;;;;;7.50;2.65;;;;;;;22.14;72.81;101509.88;6010434;28;20049;-64
2023/09/27 08:33:22;;;;;;;7.20;2.55;;;;;;;21.87;75.47;101497.28;6029846;28;20085;-63
2023/09/27 08:36:17;;;;;;;5.50;2.73;;;;;;;21.71;75.96;101495.72;6014699;28;20038;-64
2023/09/27 08:39:14;;;;;;;4.03;2.50;;;;;;;21.69;75.29;101483.44;6008123;28;20038;-64
2023/09/27 08:42:09;;;;;;;7.38;2.95;;;;;;;21.52;75.38;101498.31;6019972;28;20044;-64
2023/09/27 08:45:14;;;;;;;4.10;2.30;;;;;;;21.53;74.25;101502.66;6012083;28;20023;-64
2023/09/27 08:48:18;;;;;;;4.65;2.47;;;;;;;21.57;75.43;101504.78;6012251;28;20267;-64
2023/09/27 08:51:13;;;;;;;5.45;2.65;;;;;;;21.85;71.80;101499.31;6021277;28;20057;-64
2023/09/27 08:54:09;;;;;;;7.65;2.90;;;;;;;22.04;72.12;101493.19;6016318;28;20038;-64
2023/09/27 08:57:05;;;;;;;5.38;2.63;;;;;;;22.47;69.47;101483.78;6019439;28;20023;-64
2023/09/27 09:00:01;;;;;;;4.47;2.33;;;;;;;22.39;68.93;101477.72;6017023;28;20038;-64
2023/09/27 09:02:57;;;;;;;4.95;2.58;;;;;;;22.80;67.53;101466.78;6010815;28;20062;-64
2023/09/27 09:05:52;;;;;;;5.97;2.47;;;;;;;22.63;67.13;101462.78;6009574;28;20076;-65
2023/09/27 09:08:48;;;;;;;3.90;2.47;;;;;;;22.93;68.25;101478.44;6010799;28;20057;-64
2023/09/27 09:11:47;;;;;;;5.17;2.63;;;;;;;23.30;63.83;101492.34;6011193;28;20390;-65
2023/09/27 09:14:44;;;;;;;6.13;3.00;;;;;;;23.49;62.26;101481.53;6011378;28;20026;-65
2023/09/27 09:17:42;;;;;;;9.45;2.92;;;;;;;23.35;62.28;101465.47;6017880;28;20048;-64
2023/09/27 09:20:52;;;;;;;6.45;2.97;;;;;;;23.86;61.48;101469.09;6013369;28;20109;-65
2023/09/27 09:23:49;;;;;;;7.47;2.58;;;;;;;23.35;62.76;101466.31;6018158;28;20162;-64
2023/09/27 09:26:45;;;;;;;11.90;2.85;;;;;;;23.18;64.02;101464.28;6015413;28;20026;-65
2023/09/27 09:29:47;;;;;;;5.80;2.60;;;;;;;23.21;64.27;101470.09;6018988;28;20030;-65
2023/09/27 09:32:50;;;;;;;7.97;3.00;;;;;;;22.99;62.50;101463.25;6016987;28;20114;-65
2023/09/27 09:35:45;;;;;;;8.10;2.78;;;;;;;23.43;60.90;101465.28;6011716;28;20038;-65
2023/09/27 09:38:41;;;;;;;6.07;2.80;;;;;;;23.53;61.31;101473.81;6006111;28;20363;-64
2023/09/27 09:42:03;;;;;;;5.72;2.80;;;;;;;23.70;61.28;101470.41;6020465;28;20034;-65
2023/09/27 09:45:06;;;;;;;8.23;3.00;;;;;;;23.69;60.18;101468.78;6014687;28;20034;-65
2023/09/27 09:48:02;;;;;;;7.85;3.00;;;;;;;24.28;57.90;101456.84;6010170;28;20031;-65
2023/09/27 09:51:03;;;;;;;4.25;2.42;;;;;;;24.66;56.62;101479.34;6012494;28;20039;-64
2023/09/27 09:53:59;;;;;;;5.43;2.67;;;;;;;24.66;57.96;101481.22;6018050;28;20053;-64
2023/09/27 09:56:59;;;;;;;5.85;2.22;;;;;;;24.82;57.23;101459.84;6016023;28;20058;-64
2023/09/27 10:00:12;;;;;;;6.68;2.45;;;;;;;24.87;56.62;101467.31;6009932;28;20062;-64
2023/09/27 10:03:09;;;;;;;6.10;2.78;;;;;;;23.95;58.84;101477.84;6019836;28;20038;-64
2023/09/27 10:06:06;;;;;;;6.35;2.78;;;;;;;23.92;60.04;101467.41;6014458;28;20450;-64
2023/09/27 10:09:05;;;;;;;6.32;2.55;;;;;;;24.25;58.46;101468.13;6020711;28;20352;-65
2023/09/27 10:12:01;;;;;;;4.20;2.40;;;;;;;24.23;59.07;101460.22;6014441;28;20050;-64
2023/09/27 10:14:56;;;;;;;7.15;3.10;;;;;;;24.98;56.06;101463.03;6014157;28;20027;-65
2023/09/27 10:17:52;;;;;;;5.75;2.50;;;;;;;25.18;55.00;101469.13;6036614;28;20065;-64
2023/09/27 10:21:07;;;;;;;6.75;2.47;;;;;;;25.08;55.52;101480.50;6023672;28;20118;-65
2023/09/27 10:24:04;;;;;;;4.72;2.65;;;;;;;25.21;56.31;101457.81;6018882;28;20398;-64
2023/09/27 10:27:00;;;;;;;5.45;2.63;;;;;;;25.43;55.42;101472.66;6021963;28;20026;-64
2023/09/27 10:30:00;;;;;;;6.30;2.60;;;;;;;24.58;57.38;101463.34;6024888;28;20088;-65
2023/09/27 10:33:14;;;;;;;4.57;2.38;;;;;;;24.89;58.05;101456.25;6018339;28;20764;-64
2023/09/27 10:36:12;;;;;;;4.75;2.83;;;;;;;25.51;56.12;101457.97;6022090;28;20029;-64
2023/09/27 10:39:07;;;;;;;6.30;2.50;;;;;;;25.84;54.41;101447.53;6018163;28;20402;-65
2023/09/27 10:42:03;;;;;;;5.80;2.67;;;;;;;26.38;52.80;101444.72;6022241;28;20034;-65
2023/09/27 10:45:00;;;;;;;6.50;2.80;;;;;;;25.97;52.54;101428.34;6017904;28;20269;-64
2023/09/27 10:47:58;;;;;;;5.15;2.45;;;;;;;25.95;52.70;101428.56;6021782;28;20030;-65
2023/09/27 10:50:55;;;;;;;5.55;2.30;;;;;;;25.37;53.55;101419.22;6026047;28;20396;-65
2023/09/27 10:53:51;;;;;;;6.72;2.83;;;;;;;25.74;53.05;101410.03;6013673;28;20034;-65
2023/09/27 10:56:52;;;;;;;5.70;2.60;;;;;;;25.43;53.04;101400.16;6031401;28;20073;-65
2023/09/27 10:59:50;;;;;;;6.72;2.40;;;;;;;25.36;54.04;101406.69;6015569;28;20035;-65
2023/09/27 11:02:45;;;;;;;4.03;2.60;;;;;;;25.23;53.54;101391.38;6021531;28;20061;-65
2023/09/27 11:05:41;;;;;;;5.17;2.33;;;;;;;25.16;54.39;101389.78;6022766;28;20470;-65
2023/09/27 11:08:36;;;;;;;9.57;2.47;;;;;;;24.81;53.57;101382.19;6016636;28;20035;-64
2023/09/27 11:11:31;;;;;;;7.97;2.77;;;;;;;24.32;54.68;101374.03;6018884;28;20044;-64
2023/09/27 11:14:31;;;;;;;4.78;2.63;;;;;;;23.85;55.74;101374.50;6017353;28;20348;-64
2023/09/27 11:17:28;;;;;;;5.40;2.88;;;;;;;24.11;55.69;101360.81;6018562;28;20030;-65
2023/09/27 11:20:24;;;;;;;6.72;3.10;;;;;;;24.57;54.79;101358.59;6025728;28;20075;-65
2023/09/27 11:23:23;;;;;;;6.10;3.40;;;;;;;25.07;55.27;101359.38;6019113;28;20030;-64
2023/09/27 11:26:19;;;;;;;;;;;;;;;25.29;53.88;101373.34;6013950;28;20266;-64
2023/09/27 11:29:15;;;;;;;10.13;3.05;;;;;;;25.24;51.07;101370.50;6019143;28;19910;-65
2023/09/27 11:32:10;;;;;;;5.13;2.67;;;;;;;25.06;52.57;101378.63;6018902;28;20045;-65
2023/09/27 11:35:05;;;;;;;6.37;2.73;;;;;;;24.78;52.60;101366.34;6017915;28;20037;-65
2023/09/27 11:38:09;;;;;;;8.95;3.55;;;;;;;24.28;55.08;101365.50;6018826;28;20030;-65
2023/09/27 11:41:06;;;;;;;6.38;3.28;;;;;;;24.16;56.73;101352.88;6020813;28;20042;-64
2023/09/27 11:44:21;;;;;;;5.85;2.63;;;;;;;24.65;56.46;101349.34;6023855;28;20060;-65
2023/09/27 11:47:16;;;;;;;8.05;3.10;;;;;;;24.49;53.93;101331.75;6012952;28;20384;-64
2023/09/27 11:50:13;;;;;;;5.63;2.77;;;;;;;24.64;54.56;101326.81;6024265;28;20070;-65
2023/09/27 11:53:08;;;;;;;4.60;2.50;;;;;;;24.77;54.05;101331.28;6022340;28;20031;-65
2023/09/27 11:56:05;;;;;;;6.37;2.27;;;;;;;24.73;54.76;101341.75;6039020;28;20049;-65
2023/09/27 11:59:04;;;;;;;6.65;2.67;;;;;;;24.99;53.56;101334.41;6024000;28;20249;-65
2023/09/27 12:01:59;;;;;;;5.13;2.45;;;;;;;24.82;53.82;101318.72;6019577;28;20382;-64
2023/09/27 12:04:55;;;;;;;5.03;1.90;;;;;;;24.78;54.60;101322.94;6018307;28;20054;-65
2023/09/27 12:07:50;;;;;;;3.63;2.00;;;;;;;24.60;54.61;101325.59;6022747;28;20030;-64
2023/09/27 12:10:45;;;;;;;5.22;2.33;;;;;;;24.69;55.01;101318.00;6016340;28;20085;-64
2023/09/27 12:13:41;;;;;;;5.10;2.17;;;;;;;25.01;54.58;101324.16;6026092;28;20026;-65
2023/09/27 12:16:36;;;;;;;5.97;2.47;;;;;;;24.67;56.07;101309.25;6014387;28;20375;-64
2023/09/27 12:19:34;;;;;;;5.67;2.87;;;;;;;24.49;56.81;101301.91;6017327;28;20320;-65
2023/09/27 12:22:31;;;;;;;5.25;2.90;;;;;;;24.46;57.11;101298.84;6017169;28;20273;-65
2023/09/27 12:25:27;;;;;;;6.18;3.00;;;;;;;24.61;55.91;101300.13;6015487;28;20069;-64
2023/09/27 12:28:22;;;;;;;6.40;2.93;;;;;;;24.83;56.35;101289.72;6018234;28;20026;-65
2023/09/27 12:31:18;;;;;;;4.57;2.50;;;;;;;24.95;56.29;101285.19;6019703;28;20301;-65
2023/09/27 12:34:13;;;;;;;4.50;2.40;;;;;;;25.31;54.89;101284.31;6018056;28;20047;-65
2023/09/27 12:37:08;;;;;;;6.00;2.70;;;;;;;25.43;54.20;101271.63;6010992;28;20037;-65
2023/09/27 12:40:05;;;;;;;5.20;2.70;;;;;;;25.26;54.59;101281.47;6025796;28;20061;-65
2023/09/27 12:43:01;;;;;;;4.82;2.65;;;;;;;25.25;54.85;101275.22;6018235;28;20058;-64
2023/09/27 12:45:57;;;;;;;5.32;2.50;;;;;;;25.29;54.27;101259.28;6018509;28;20121;-65
2023/09/27 12:48:52;;;;;;;6.43;2.80;;;;;;;25.24;53.54;101272.72;6011165;28;20058;-65
2023/09/27 12:51:47;;;;;;;6.63;2.87;;;;;;;25.44;53.51;101252.38;6024138;28;20429;-64
2023/09/27 12:54:44;;;;;;;5.03;2.45;;;;;;;25.63;54.52;101261.34;6022575;28;20481;-65
2023/09/27 12:57:39;;;;;;;3.88;2.30;;;;;;;25.48;54.11;101257.38;6023961;28;20026;-65
2023/09/27 13:00:37;;;;;;;4.27;2.40;;;;;;;25.30;55.11;101250.91;6019523;28;20489;-64
2023/09/27 13:03:32;;;;;;;5.60;2.63;;;;;;;25.57;54.51;101240.56;6010311;28;20031;-64
2023/09/27 13:06:27;;;;;;;9.10;3.10;;;;;;;25.36;55.43;101254.59;6012079;28;20050;-64
2023/09/27 13:09:23;;;;;;;5.53;2.67;;;;;;;25.39;54.94;101249.53;6011891;28;20070;-65
2023/09/27 13:12:18;;;;;;;4.30;2.70;;;;;;;25.30;55.70;101252.81;6016510;28;20053;-65
2023/09/27 13:15:13;;;;;;;6.83;2.90;;;;;;;25.06;54.97;101242.91;6013332;28;20042;-65
2023/09/27 13:18:08;;;;;;;4.67;2.60;;;;;;;24.97;55.62;101233.41;6011003;28;20030;-64
2023/09/27 13:21:04;;;;;;;6.93;2.50;;;;;;;24.94;56.14;101239.28;6017460;28;20282;-64
2023/09/27 13:23:59;;;;;;;8.85;3.00;;;;;;;24.90;55.86;101233.47;6010791;28;20018;-65
2023/09/27 13:26:54;;;;;;;6.57;2.80;;;;;;;24.99;56.03;101231.28;6017858;28;20041;-65
2023/09/27 13:29:50;;;;;;;4.50;2.60;;;;;;;25.18;55.16;101232.91;6015146;28;20022;-65
2023/09/27 13:32:45;;;;;;;6.03;2.30;;;;;;;25.85;54.52;101240.72;6022523;28;20038;-65